sensor_id;sensor_type;location;lat;lon;timestamp;temperature;humidity
13896;DHT22;7018;50.838;4.226;2022-11-20T00:00:23;4.20;99.90
13896;DHT22;7018;50.838;4.226;2022-11-20T00:02:50;4.20;99.90
13896;DHT22;7018;50.838;4.226;2022-11-20T00:05:17;4.00;99.90
13896;DHT22;7018;50.838;4.226;2022-11-20T00:07:45;3.90;99.90
13896;DHT22;7018;50.838;4.226;2022-11-20T00:10:12;3.90;99.90
13896;DHT22;7018;50.838;4.226;2022-11-20T00:12:39;4.00;99.90
13896;DHT22;7018;50.838;4.226;2022-11-20T00:15:07;3.90;99.90
13896;DHT22;7018;50.838;4.226;2022-11-20T00:17:34;3.90;99.90
13896;DHT22;7018;50.838;4.226;2022-11-20T00:20:01;3.80;99.90
13896;DHT22;7018;50.838;4.226;2022-11-20T00:22:28;3.80;99.90
13896;DHT22;7018;50.838;4.226;2022-11-20T00:24:55;3.90;99.90
13896;DHT22;7018;50.838;4.226;2022-11-20T00:27:24;3.90;99.90
13896;DHT22;7018;50.838;4.226;2022-11-20T00:29:51;3.80;99.90
13896;DHT22;7018;50.838;4.226;2022-11-20T00:32:18;3.80;99.90
13896;DHT22;7018;50.838;4.226;2022-11-20T00:34:45;3.90;99.90
13896;DHT22;7018;50.838;4.226;2022-11-20T00:37:12;3.90;99.90
13896;DHT22;7018;50.838;4.226;2022-11-20T00:39:40;3.90;99.90
13896;DHT22;7018;50.838;4.226;2022-11-20T00:42:07;4.00;99.90
13896;DHT22;7018;50.838;4.226;2022-11-20T00:44:34;4.10;99.90
13896;DHT22;7018;50.838;4.226;2022-11-20T00:47:01;4.00;99.90
13896;DHT22;7018;50.838;4.226;2022-11-20T00:49:28;4.00;99.90
13896;DHT22;7018;50.838;4.226;2022-11-20T00:51:55;4.10;99.90
13896;DHT22;7018;50.838;4.226;2022-11-20T00:54:22;4.00;99.90
13896;DHT22;7018;50.838;4.226;2022-11-20T00:56:49;4.00;99.90
13896;DHT22;7018;50.838;4.226;2022-11-20T00:59:16;4.10;99.90
13896;DHT22;7018;50.838;4.226;2022-11-20T01:01:43;4.10;99.90
13896;DHT22;7018;50.838;4.226;2022-11-20T01:04:10;4.10;99.90
13896;DHT22;7018;50.838;4.226;2022-11-20T01:06:39;4.10;99.90
13896;DHT22;7018;50.838;4.226;2022-11-20T01:09:10;4.10;99.90
13896;DHT22;7018;50.838;4.226;2022-11-20T01:11:39;4.10;99.90
13896;DHT22;7018;50.838;4.226;2022-11-20T01:14:11;4.10;99.90
13896;DHT22;7018;50.838;4.226;2022-11-20T01:16:40;4.20;99.90
13896;DHT22;7018;50.838;4.226;2022-11-20T01:19:11;4.30;99.90
13896;DHT22;7018;50.838;4.226;2022-11-20T01:21:44;4.20;99.90
13896;DHT22;7018;50.838;4.226;2022-11-20T01:24:15;4.20;99.90
13896;DHT22;7018;50.838;4.226;2022-11-20T01:26:44;4.30;99.90
13896;DHT22;7018;50.838;4.226;2022-11-20T01:29:20;4.30;99.90
13896;DHT22;7018;50.838;4.226;2022-11-20T01:31:48;4.40;99.90
13896;DHT22;7018;50.838;4.226;2022-11-20T01:34:17;4.40;99.90
13896;DHT22;7018;50.838;4.226;2022-11-20T01:36:47;4.40;99.90
13896;DHT22;7018;50.838;4.226;2022-11-20T01:39:19;4.30;99.90
13896;DHT22;7018;50.838;4.226;2022-11-20T01:41:51;4.30;99.90
13896;DHT22;7018;50.838;4.226;2022-11-20T01:44:50;4.30;99.90
13896;DHT22;7018;50.838;4.226;2022-11-20T01:47:39;4.30;99.90
13896;DHT22;7018;50.838;4.226;2022-11-20T01:50:15;4.30;99.90
13896;DHT22;7018;50.838;4.226;2022-11-20T01:55:36;4.40;99.90
13896;DHT22;7018;50.838;4.226;2022-11-20T01:58:06;4.40;99.90
13896;DHT22;7018;50.838;4.226;2022-11-20T02:00:34;4.40;99.90
13896;DHT22;7018;50.838;4.226;2022-11-20T02:03:05;4.40;99.90
13896;DHT22;7018;50.838;4.226;2022-11-20T02:08:23;4.30;99.90
13896;DHT22;7018;50.838;4.226;2022-11-20T02:10:50;4.30;99.90
13896;DHT22;7018;50.838;4.226;2022-11-20T02:13:17;4.30;99.90
13896;DHT22;7018;50.838;4.226;2022-11-20T02:16:03;4.30;99.90
13896;DHT22;7018;50.838;4.226;2022-11-20T02:18:30;4.30;99.90
13896;DHT22;7018;50.838;4.226;2022-11-20T02:21:17;4.30;99.90
13896;DHT22;7018;50.838;4.226;2022-11-20T02:26:23;4.30;99.90
13896;DHT22;7018;50.838;4.226;2022-11-20T02:28:50;4.20;99.90
13896;DHT22;7018;50.838;4.226;2022-11-20T02:31:17;4.20;99.90
13896;DHT22;7018;50.838;4.226;2022-11-20T02:33:44;4.20;99.90
13896;DHT22;7018;50.838;4.226;2022-11-20T02:36:15;4.20;99.90
13896;DHT22;7018;50.838;4.226;2022-11-20T02:38:43;4.30;99.90
13896;DHT22;7018;50.838;4.226;2022-11-20T02:41:10;4.30;99.90
13896;DHT22;7018;50.838;4.226;2022-11-20T02:43:38;4.30;99.90
13896;DHT22;7018;50.838;4.226;2022-11-20T02:46:07;4.30;99.90
13896;DHT22;7018;50.838;4.226;2022-11-20T02:48:35;4.30;99.90
13896;DHT22;7018;50.838;4.226;2022-11-20T02:51:02;4.30;99.90
13896;DHT22;7018;50.838;4.226;2022-11-20T02:53:29;4.40;99.90
13896;DHT22;7018;50.838;4.226;2022-11-20T02:55:56;4.50;99.90
13896;DHT22;7018;50.838;4.226;2022-11-20T02:58:23;4.50;99.90
13896;DHT22;7018;50.838;4.226;2022-11-20T03:00:51;4.50;99.90
13896;DHT22;7018;50.838;4.226;2022-11-20T03:03:18;4.50;99.90
13896;DHT22;7018;50.838;4.226;2022-11-20T03:05:45;4.60;99.90
13896;DHT22;7018;50.838;4.226;2022-11-20T03:08:12;4.60;99.90
13896;DHT22;7018;50.838;4.226;2022-11-20T03:10:39;4.60;99.90
13896;DHT22;7018;50.838;4.226;2022-11-20T03:13:06;4.60;99.90
13896;DHT22;7018;50.838;4.226;2022-11-20T03:15:36;4.70;99.90
13896;DHT22;7018;50.838;4.226;2022-11-20T03:18:03;4.70;99.90
13896;DHT22;7018;50.838;4.226;2022-11-20T03:20:32;4.70;99.90
13896;DHT22;7018;50.838;4.226;2022-11-20T03:23:00;4.60;99.90
13896;DHT22;7018;50.838;4.226;2022-11-20T03:25:27;4.60;99.90
13896;DHT22;7018;50.838;4.226;2022-11-20T03:27:55;4.60;99.90
13896;DHT22;7018;50.838;4.226;2022-11-20T03:30:22;4.60;99.90
13896;DHT22;7018;50.838;4.226;2022-11-20T03:32:53;4.60;99.90
13896;DHT22;7018;50.838;4.226;2022-11-20T03:35:20;4.60;99.90
13896;DHT22;7018;50.838;4.226;2022-11-20T03:37:47;4.60;99.90
13896;DHT22;7018;50.838;4.226;2022-11-20T03:40:15;4.60;99.90
13896;DHT22;7018;50.838;4.226;2022-11-20T03:42:42;4.70;99.90
13896;DHT22;7018;50.838;4.226;2022-11-20T03:45:16;4.70;99.90
13896;DHT22;7018;50.838;4.226;2022-11-20T03:47:45;4.70;99.90
13896;DHT22;7018;50.838;4.226;2022-11-20T03:50:12;4.70;99.90
13896;DHT22;7018;50.838;4.226;2022-11-20T03:52:40;4.80;99.90
13896;DHT22;7018;50.838;4.226;2022-11-20T03:55:09;4.70;99.90
13896;DHT22;7018;50.838;4.226;2022-11-20T03:57:36;4.80;99.90
13896;DHT22;7018;50.838;4.226;2022-11-20T04:00:04;4.80;99.90
13896;DHT22;7018;50.838;4.226;2022-11-20T04:02:31;4.80;99.90
13896;DHT22;7018;50.838;4.226;2022-11-20T04:04:58;4.80;99.90
13896;DHT22;7018;50.838;4.226;2022-11-20T04:07:25;4.90;99.90
13896;DHT22;7018;50.838;4.226;2022-11-20T04:09:52;4.90;99.90
13896;DHT22;7018;50.838;4.226;2022-11-20T04:12:20;4.90;99.90
13896;DHT22;7018;50.838;4.226;2022-11-20T04:14:47;4.90;99.90
13896;DHT22;7018;50.838;4.226;2022-11-20T04:17:14;5.00;99.90
13896;DHT22;7018;50.838;4.226;2022-11-20T04:19:41;5.00;99.90
13896;DHT22;7018;50.838;4.226;2022-11-20T04:22:08;4.80;99.90
13896;DHT22;7018;50.838;4.226;2022-11-20T04:24:35;4.80;99.90
13896;DHT22;7018;50.838;4.226;2022-11-20T04:27:02;4.90;99.90
13896;DHT22;7018;50.838;4.226;2022-11-20T04:29:29;5.00;99.90
13896;DHT22;7018;50.838;4.226;2022-11-20T04:31:56;5.00;99.90
13896;DHT22;7018;50.838;4.226;2022-11-20T04:34:23;5.00;99.90
13896;DHT22;7018;50.838;4.226;2022-11-20T04:36:50;5.00;99.90
13896;DHT22;7018;50.838;4.226;2022-11-20T04:39:17;4.80;99.90
13896;DHT22;7018;50.838;4.226;2022-11-20T04:41:45;4.80;99.90
13896;DHT22;7018;50.838;4.226;2022-11-20T04:44:12;4.90;99.90
13896;DHT22;7018;50.838;4.226;2022-11-20T04:46:41;4.90;99.90
13896;DHT22;7018;50.838;4.226;2022-11-20T04:49:09;4.90;99.90
13896;DHT22;7018;50.838;4.226;2022-11-20T04:51:37;4.80;99.90
13896;DHT22;7018;50.838;4.226;2022-11-20T04:54:04;5.00;99.90
13896;DHT22;7018;50.838;4.226;2022-11-20T04:56:31;5.00;99.90
13896;DHT22;7018;50.838;4.226;2022-11-20T04:59:02;5.00;99.90
13896;DHT22;7018;50.838;4.226;2022-11-20T05:01:29;5.00;99.90
13896;DHT22;7018;50.838;4.226;2022-11-20T05:03:56;5.20;99.90
13896;DHT22;7018;50.838;4.226;2022-11-20T05:06:23;5.20;99.90
13896;DHT22;7018;50.838;4.226;2022-11-20T05:08:50;5.20;99.90
13896;DHT22;7018;50.838;4.226;2022-11-20T05:11:20;5.00;99.90
13896;DHT22;7018;50.838;4.226;2022-11-20T05:13:47;5.00;99.90
13896;DHT22;7018;50.838;4.226;2022-11-20T05:16:17;5.10;99.90
13896;DHT22;7018;50.838;4.226;2022-11-20T05:18:45;5.00;99.90
13896;DHT22;7018;50.838;4.226;2022-11-20T05:21:13;5.00;99.90
13896;DHT22;7018;50.838;4.226;2022-11-20T05:23:41;4.90;99.90
13896;DHT22;7018;50.838;4.226;2022-11-20T05:26:13;5.10;99.90
13896;DHT22;7018;50.838;4.226;2022-11-20T05:28:40;5.00;99.90
13896;DHT22;7018;50.838;4.226;2022-11-20T05:31:16;4.90;99.90
13896;DHT22;7018;50.838;4.226;2022-11-20T05:33:45;5.00;99.90
13896;DHT22;7018;50.838;4.226;2022-11-20T05:36:14;5.10;99.90
13896;DHT22;7018;50.838;4.226;2022-11-20T05:38:42;5.10;99.90
13896;DHT22;7018;50.838;4.226;2022-11-20T05:41:15;5.10;99.90
13896;DHT22;7018;50.838;4.226;2022-11-20T05:43:43;5.10;99.90
13896;DHT22;7018;50.838;4.226;2022-11-20T05:46:13;5.00;99.90
13896;DHT22;7018;50.838;4.226;2022-11-20T05:48:42;5.00;99.90
13896;DHT22;7018;50.838;4.226;2022-11-20T05:51:12;5.10;99.90
13896;DHT22;7018;50.838;4.226;2022-11-20T05:53:39;5.10;99.90
13896;DHT22;7018;50.838;4.226;2022-11-20T05:56:13;5.10;99.90
13896;DHT22;7018;50.838;4.226;2022-11-20T05:58:41;5.00;99.90
13896;DHT22;7018;50.838;4.226;2022-11-20T06:01:15;5.20;99.90
13896;DHT22;7018;50.838;4.226;2022-11-20T06:03:43;5.20;99.90
13896;DHT22;7018;50.838;4.226;2022-11-20T06:06:13;5.20;99.90
13896;DHT22;7018;50.838;4.226;2022-11-20T06:08:41;5.30;99.90
13896;DHT22;7018;50.838;4.226;2022-11-20T06:11:10;5.30;99.90
13896;DHT22;7018;50.838;4.226;2022-11-20T06:13:37;5.20;99.90
13896;DHT22;7018;50.838;4.226;2022-11-20T06:16:07;5.20;99.90
13896;DHT22;7018;50.838;4.226;2022-11-20T06:18:35;5.10;99.90
13896;DHT22;7018;50.838;4.226;2022-11-20T06:21:07;5.00;99.90
13896;DHT22;7018;50.838;4.226;2022-11-20T06:23:35;5.10;99.90
13896;DHT22;7018;50.838;4.226;2022-11-20T06:26:05;5.20;99.90
13896;DHT22;7018;50.838;4.226;2022-11-20T06:28:32;5.30;99.90
13896;DHT22;7018;50.838;4.226;2022-11-20T06:31:00;5.30;99.90
13896;DHT22;7018;50.838;4.226;2022-11-20T06:33:27;5.30;99.90
13896;DHT22;7018;50.838;4.226;2022-11-20T06:35:59;5.30;99.90
13896;DHT22;7018;50.838;4.226;2022-11-20T06:38:28;5.30;99.90
13896;DHT22;7018;50.838;4.226;2022-11-20T06:40:57;5.40;99.90
13896;DHT22;7018;50.838;4.226;2022-11-20T06:43:24;5.50;99.90
13896;DHT22;7018;50.838;4.226;2022-11-20T06:45:53;5.50;99.90
13896;DHT22;7018;50.838;4.226;2022-11-20T06:48:20;5.50;99.90
13896;DHT22;7018;50.838;4.226;2022-11-20T06:50:48;5.60;99.90
13896;DHT22;7018;50.838;4.226;2022-11-20T06:53:15;5.50;99.90
13896;DHT22;7018;50.838;4.226;2022-11-20T06:55:43;5.50;99.90
13896;DHT22;7018;50.838;4.226;2022-11-20T06:58:12;5.50;99.90
13896;DHT22;7018;50.838;4.226;2022-11-20T07:00:39;5.40;99.90
13896;DHT22;7018;50.838;4.226;2022-11-20T07:03:08;5.50;99.90
13896;DHT22;7018;50.838;4.226;2022-11-20T07:05:36;5.30;99.90
13896;DHT22;7018;50.838;4.226;2022-11-20T07:08:03;5.40;99.90
13896;DHT22;7018;50.838;4.226;2022-11-20T07:10:31;5.40;99.90
13896;DHT22;7018;50.838;4.226;2022-11-20T07:12:58;5.40;99.90
13896;DHT22;7018;50.838;4.226;2022-11-20T07:15:26;5.30;99.90
13896;DHT22;7018;50.838;4.226;2022-11-20T07:17:53;5.40;99.90
13896;DHT22;7018;50.838;4.226;2022-11-20T07:20:21;5.40;99.90
13896;DHT22;7018;50.838;4.226;2022-11-20T07:22:55;5.30;99.90
13896;DHT22;7018;50.838;4.226;2022-11-20T07:25:26;5.30;99.90
13896;DHT22;7018;50.838;4.226;2022-11-20T07:27:57;5.30;99.90
13896;DHT22;7018;50.838;4.226;2022-11-20T07:30:25;5.30;99.90
13896;DHT22;7018;50.838;4.226;2022-11-20T07:32:53;5.30;99.90
13896;DHT22;7018;50.838;4.226;2022-11-20T07:35:22;5.40;99.90
13896;DHT22;7018;50.838;4.226;2022-11-20T07:37:49;5.40;99.90
13896;DHT22;7018;50.838;4.226;2022-11-20T07:40:17;5.50;99.90
13896;DHT22;7018;50.838;4.226;2022-11-20T07:42:51;5.40;99.90
13896;DHT22;7018;50.838;4.226;2022-11-20T07:45:19;5.50;99.90
13896;DHT22;7018;50.838;4.226;2022-11-20T07:47:49;5.50;99.90
13896;DHT22;7018;50.838;4.226;2022-11-20T07:50:16;5.50;99.90
13896;DHT22;7018;50.838;4.226;2022-11-20T07:52:43;5.50;99.90
13896;DHT22;7018;50.838;4.226;2022-11-20T07:55:11;5.50;99.90
13896;DHT22;7018;50.838;4.226;2022-11-20T07:57:38;5.50;99.90
13896;DHT22;7018;50.838;4.226;2022-11-20T08:00:08;5.50;99.90
13896;DHT22;7018;50.838;4.226;2022-11-20T08:02:40;5.50;99.90
13896;DHT22;7018;50.838;4.226;2022-11-20T08:05:08;5.50;99.90
13896;DHT22;7018;50.838;4.226;2022-11-20T08:07:39;5.50;99.90
13896;DHT22;7018;50.838;4.226;2022-11-20T08:10:08;5.60;99.90
13896;DHT22;7018;50.838;4.226;2022-11-20T08:12:36;5.60;99.90
13896;DHT22;7018;50.838;4.226;2022-11-20T08:15:21;5.70;99.90
13896;DHT22;7018;50.838;4.226;2022-11-20T08:17:48;5.70;99.90
13896;DHT22;7018;50.838;4.226;2022-11-20T08:20:27;5.80;99.90
13896;DHT22;7018;50.838;4.226;2022-11-20T08:23:03;5.90;99.90
13896;DHT22;7018;50.838;4.226;2022-11-20T08:25:33;6.10;99.90
13896;DHT22;7018;50.838;4.226;2022-11-20T08:28:03;6.10;99.90
13896;DHT22;7018;50.838;4.226;2022-11-20T08:30:36;6.10;99.90
13896;DHT22;7018;50.838;4.226;2022-11-20T08:33:06;6.20;99.90
13896;DHT22;7018;50.838;4.226;2022-11-20T08:35:38;6.20;99.90
13896;DHT22;7018;50.838;4.226;2022-11-20T08:38:05;6.30;99.90
13896;DHT22;7018;50.838;4.226;2022-11-20T08:40:33;6.40;99.90
13896;DHT22;7018;50.838;4.226;2022-11-20T08:43:00;6.40;99.90
13896;DHT22;7018;50.838;4.226;2022-11-20T08:45:28;6.40;99.90
13896;DHT22;7018;50.838;4.226;2022-11-20T08:48:04;6.50;99.90
13896;DHT22;7018;50.838;4.226;2022-11-20T08:50:31;6.60;99.90
13896;DHT22;7018;50.838;4.226;2022-11-20T08:53:04;6.60;99.90
13896;DHT22;7018;50.838;4.226;2022-11-20T08:55:31;6.70;99.90
13896;DHT22;7018;50.838;4.226;2022-11-20T08:58:02;6.80;99.90
13896;DHT22;7018;50.838;4.226;2022-11-20T09:00:30;6.90;99.90
13896;DHT22;7018;50.838;4.226;2022-11-20T09:02:57;6.80;99.90
13896;DHT22;7018;50.838;4.226;2022-11-20T09:05:25;6.80;99.90
13896;DHT22;7018;50.838;4.226;2022-11-20T09:07:55;6.90;99.90
13896;DHT22;7018;50.838;4.226;2022-11-20T09:10:22;6.90;99.90
13896;DHT22;7018;50.838;4.226;2022-11-20T09:12:50;7.00;99.90
13896;DHT22;7018;50.838;4.226;2022-11-20T09:15:18;7.00;99.90
13896;DHT22;7018;50.838;4.226;2022-11-20T09:20:19;7.10;99.90
13896;DHT22;7018;50.838;4.226;2022-11-20T09:22:47;7.10;99.90
13896;DHT22;7018;50.838;4.226;2022-11-20T09:25:14;7.00;99.90
13896;DHT22;7018;50.838;4.226;2022-11-20T09:27:41;7.30;99.90
13896;DHT22;7018;50.838;4.226;2022-11-20T09:30:10;7.40;99.90
13896;DHT22;7018;50.838;4.226;2022-11-20T09:32:41;7.50;99.90
13896;DHT22;7018;50.838;4.226;2022-11-20T09:35:09;7.50;99.90
13896;DHT22;7018;50.838;4.226;2022-11-20T09:37:37;7.50;99.90
13896;DHT22;7018;50.838;4.226;2022-11-20T09:40:04;7.70;99.90
13896;DHT22;7018;50.838;4.226;2022-11-20T09:45:38;7.90;99.90
13896;DHT22;7018;50.838;4.226;2022-11-20T09:54:15;8.00;99.90
13896;DHT22;7018;50.838;4.226;2022-11-20T09:56:46;8.10;99.90
13896;DHT22;7018;50.838;4.226;2022-11-20T09:59:38;8.10;99.90
13896;DHT22;7018;50.838;4.226;2022-11-20T10:02:32;8.10;99.90
13896;DHT22;7018;50.838;4.226;2022-11-20T10:05:05;8.00;99.90
13896;DHT22;7018;50.838;4.226;2022-11-20T12:05:57;8.80;99.90
13896;DHT22;7018;50.838;4.226;2022-11-20T12:16:04;8.70;99.90
13896;DHT22;7018;50.838;4.226;2022-11-20T12:18:33;8.70;99.90
13896;DHT22;7018;50.838;4.226;2022-11-20T12:24:15;8.50;99.90
13896;DHT22;7018;50.838;4.226;2022-11-20T12:29:30;8.40;99.90
13896;DHT22;7018;50.838;4.226;2022-11-20T12:37:52;8.50;99.90
13896;DHT22;7018;50.838;4.226;2022-11-20T13:05:04;8.90;99.90
13896;DHT22;7018;50.838;4.226;2022-11-20T13:07:35;8.90;99.90
13896;DHT22;7018;50.838;4.226;2022-11-20T13:10:04;8.80;99.90
13896;DHT22;7018;50.838;4.226;2022-11-20T13:12:47;8.70;99.90
13896;DHT22;7018;50.838;4.226;2022-11-20T13:15:34;8.70;99.90
13896;DHT22;7018;50.838;4.226;2022-11-20T13:18:04;8.60;99.90
13896;DHT22;7018;50.838;4.226;2022-11-20T13:20:36;8.50;99.90
13896;DHT22;7018;50.838;4.226;2022-11-20T13:23:08;8.50;99.90
13896;DHT22;7018;50.838;4.226;2022-11-20T13:25:37;8.50;99.90
13896;DHT22;7018;50.838;4.226;2022-11-20T13:30:50;8.40;99.90
13896;DHT22;7018;50.838;4.226;2022-11-20T13:33:34;8.40;99.90
13896;DHT22;7018;50.838;4.226;2022-11-20T13:36:07;8.30;99.90
13896;DHT22;7018;50.838;4.226;2022-11-20T13:38:51;8.30;99.90
13896;DHT22;7018;50.838;4.226;2022-11-20T13:41:31;8.30;99.90
13896;DHT22;7018;50.838;4.226;2022-11-20T13:44:25;8.30;99.90
13896;DHT22;7018;50.838;4.226;2022-11-20T13:46:53;8.30;99.90
13896;DHT22;7018;50.838;4.226;2022-11-20T13:49:31;8.30;99.90
13896;DHT22;7018;50.838;4.226;2022-11-20T14:00:23;8.30;99.90
13896;DHT22;7018;50.838;4.226;2022-11-20T14:03:22;8.30;99.90
13896;DHT22;7018;50.838;4.226;2022-11-20T14:06:10;8.30;99.90
13896;DHT22;7018;50.838;4.226;2022-11-20T14:11:18;8.20;99.90
13896;DHT22;7018;50.838;4.226;2022-11-20T14:16:28;8.20;99.90
13896;DHT22;7018;50.838;4.226;2022-11-20T14:18:56;8.10;99.90
13896;DHT22;7018;50.838;4.226;2022-11-20T14:21:28;8.10;99.90
13896;DHT22;7018;50.838;4.226;2022-11-20T14:24:05;8.10;99.90
13896;DHT22;7018;50.838;4.226;2022-11-20T14:26:33;8.10;99.90
13896;DHT22;7018;50.838;4.226;2022-11-20T14:29:00;8.10;99.90
13896;DHT22;7018;50.838;4.226;2022-11-20T14:31:28;8.10;99.90
13896;DHT22;7018;50.838;4.226;2022-11-20T14:33:55;8.20;99.90
13896;DHT22;7018;50.838;4.226;2022-11-20T14:36:25;8.20;99.90
13896;DHT22;7018;50.838;4.226;2022-11-20T14:38:52;8.10;99.90
13896;DHT22;7018;50.838;4.226;2022-11-20T14:41:22;8.20;99.90
13896;DHT22;7018;50.838;4.226;2022-11-20T14:43:56;8.20;99.90
13896;DHT22;7018;50.838;4.226;2022-11-20T14:46:24;8.30;99.90
13896;DHT22;7018;50.838;4.226;2022-11-20T14:48:55;8.20;99.90
13896;DHT22;7018;50.838;4.226;2022-11-20T14:51:35;8.20;99.90
13896;DHT22;7018;50.838;4.226;2022-11-20T14:54:10;8.20;99.90
13896;DHT22;7018;50.838;4.226;2022-11-20T14:56:38;8.30;99.90
13896;DHT22;7018;50.838;4.226;2022-11-20T14:59:06;8.30;99.90
13896;DHT22;7018;50.838;4.226;2022-11-20T15:01:34;8.30;99.90
13896;DHT22;7018;50.838;4.226;2022-11-20T15:04:10;8.30;99.90
13896;DHT22;7018;50.838;4.226;2022-11-20T15:06:38;8.40;99.90
13896;DHT22;7018;50.838;4.226;2022-11-20T15:09:15;8.40;99.90
13896;DHT22;7018;50.838;4.226;2022-11-20T15:11:59;8.40;99.90
13896;DHT22;7018;50.838;4.226;2022-11-20T15:14:27;8.50;99.90
13896;DHT22;7018;50.838;4.226;2022-11-20T15:16:55;8.50;99.90
13896;DHT22;7018;50.838;4.226;2022-11-20T15:19:24;8.50;99.90
13896;DHT22;7018;50.838;4.226;2022-11-20T15:21:52;8.50;99.90
13896;DHT22;7018;50.838;4.226;2022-11-20T15:24:19;8.50;99.90
13896;DHT22;7018;50.838;4.226;2022-11-20T15:26:47;8.50;99.90
13896;DHT22;7018;50.838;4.226;2022-11-20T15:29:16;8.60;99.90
13896;DHT22;7018;50.838;4.226;2022-11-20T15:31:47;8.60;99.90
13896;DHT22;7018;50.838;4.226;2022-11-20T15:34:15;8.60;99.90
13896;DHT22;7018;50.838;4.226;2022-11-20T15:36:43;8.70;99.90
13896;DHT22;7018;50.838;4.226;2022-11-20T15:39:10;8.70;99.90
13896;DHT22;7018;50.838;4.226;2022-11-20T15:41:38;8.70;99.90
13896;DHT22;7018;50.838;4.226;2022-11-20T15:44:05;8.70;99.90
13896;DHT22;7018;50.838;4.226;2022-11-20T15:46:35;8.60;99.90
13896;DHT22;7018;50.838;4.226;2022-11-20T15:49:05;8.60;99.90
13896;DHT22;7018;50.838;4.226;2022-11-20T15:51:37;8.60;99.90
13896;DHT22;7018;50.838;4.226;2022-11-20T15:54:13;8.50;99.90
13896;DHT22;7018;50.838;4.226;2022-11-20T15:56:41;8.60;99.90
13896;DHT22;7018;50.838;4.226;2022-11-20T15:59:08;8.60;99.90
13896;DHT22;7018;50.838;4.226;2022-11-20T16:01:35;8.60;99.90
13896;DHT22;7018;50.838;4.226;2022-11-20T16:04:05;8.60;99.90
13896;DHT22;7018;50.838;4.226;2022-11-20T16:06:32;8.70;99.90
13896;DHT22;7018;50.838;4.226;2022-11-20T16:08:59;8.70;99.90
13896;DHT22;7018;50.838;4.226;2022-11-20T16:11:26;8.70;99.90
13896;DHT22;7018;50.838;4.226;2022-11-20T16:13:53;8.80;99.90
13896;DHT22;7018;50.838;4.226;2022-11-20T16:16:38;8.80;99.90
13896;DHT22;7018;50.838;4.226;2022-11-20T16:19:11;8.70;99.90
13896;DHT22;7018;50.838;4.226;2022-11-20T16:21:39;8.70;99.90
13896;DHT22;7018;50.838;4.226;2022-11-20T16:24:10;8.70;99.90
13896;DHT22;7018;50.838;4.226;2022-11-20T16:26:38;8.60;99.90
13896;DHT22;7018;50.838;4.226;2022-11-20T16:29:06;8.60;99.90
13896;DHT22;7018;50.838;4.226;2022-11-20T16:31:35;8.60;99.90
13896;DHT22;7018;50.838;4.226;2022-11-20T16:34:05;8.50;99.90
13896;DHT22;7018;50.838;4.226;2022-11-20T16:36:39;8.50;99.90
13896;DHT22;7018;50.838;4.226;2022-11-20T16:39:07;8.50;99.90
13896;DHT22;7018;50.838;4.226;2022-11-20T16:41:34;8.40;99.90
13896;DHT22;7018;50.838;4.226;2022-11-20T16:44:07;8.40;99.90
13896;DHT22;7018;50.838;4.226;2022-11-20T16:46:35;8.40;99.90
13896;DHT22;7018;50.838;4.226;2022-11-20T16:49:08;8.40;99.90
13896;DHT22;7018;50.838;4.226;2022-11-20T16:51:37;8.50;99.90
13896;DHT22;7018;50.838;4.226;2022-11-20T16:54:06;8.50;99.90
13896;DHT22;7018;50.838;4.226;2022-11-20T16:56:34;8.50;99.90
13896;DHT22;7018;50.838;4.226;2022-11-20T16:59:02;8.60;99.90
13896;DHT22;7018;50.838;4.226;2022-11-20T17:01:30;8.60;99.90
13896;DHT22;7018;50.838;4.226;2022-11-20T17:03:59;8.60;99.90
13896;DHT22;7018;50.838;4.226;2022-11-20T17:06:29;8.60;99.90
13896;DHT22;7018;50.838;4.226;2022-11-20T17:08:57;8.50;99.90
13896;DHT22;7018;50.838;4.226;2022-11-20T17:11:25;8.50;99.90
13896;DHT22;7018;50.838;4.226;2022-11-20T17:13:57;8.50;99.90
13896;DHT22;7018;50.838;4.226;2022-11-20T17:16:34;8.50;99.90
13896;DHT22;7018;50.838;4.226;2022-11-20T17:19:02;8.50;99.90
13896;DHT22;7018;50.838;4.226;2022-11-20T17:21:32;8.50;99.90
13896;DHT22;7018;50.838;4.226;2022-11-20T17:24:00;8.50;99.90
13896;DHT22;7018;50.838;4.226;2022-11-20T17:26:31;8.40;99.90
13896;DHT22;7018;50.838;4.226;2022-11-20T17:29:02;8.40;99.90
13896;DHT22;7018;50.838;4.226;2022-11-20T17:31:31;8.40;99.90
13896;DHT22;7018;50.838;4.226;2022-11-20T17:33:59;8.50;99.90
13896;DHT22;7018;50.838;4.226;2022-11-20T17:36:28;8.40;99.90
13896;DHT22;7018;50.838;4.226;2022-11-20T17:38:56;8.40;99.90
13896;DHT22;7018;50.838;4.226;2022-11-20T17:41:25;8.40;99.90
13896;DHT22;7018;50.838;4.226;2022-11-20T17:43:57;8.40;99.90
13896;DHT22;7018;50.838;4.226;2022-11-20T17:46:26;8.40;99.90
13896;DHT22;7018;50.838;4.226;2022-11-20T17:48:55;8.40;99.90
13896;DHT22;7018;50.838;4.226;2022-11-20T17:51:25;8.50;99.90
13896;DHT22;7018;50.838;4.226;2022-11-20T17:53:58;8.50;99.90
13896;DHT22;7018;50.838;4.226;2022-11-20T17:56:30;8.50;99.90
13896;DHT22;7018;50.838;4.226;2022-11-20T17:59:17;8.50;99.90
13896;DHT22;7018;50.838;4.226;2022-11-20T18:01:45;8.50;99.90
13896;DHT22;7018;50.838;4.226;2022-11-20T18:04:12;8.60;99.90
13896;DHT22;7018;50.838;4.226;2022-11-20T18:06:41;8.60;99.90
13896;DHT22;7018;50.838;4.226;2022-11-20T18:09:09;8.60;99.90
13896;DHT22;7018;50.838;4.226;2022-11-20T18:11:38;8.60;99.90
13896;DHT22;7018;50.838;4.226;2022-11-20T18:14:09;8.60;99.90
13896;DHT22;7018;50.838;4.226;2022-11-20T18:17:02;8.50;99.90
13896;DHT22;7018;50.838;4.226;2022-11-20T18:19:33;8.50;99.90
13896;DHT22;7018;50.838;4.226;2022-11-20T18:22:02;8.50;99.90
13896;DHT22;7018;50.838;4.226;2022-11-20T18:24:31;8.50;99.90
13896;DHT22;7018;50.838;4.226;2022-11-20T18:26:58;8.50;99.90
13896;DHT22;7018;50.838;4.226;2022-11-20T18:29:26;8.50;99.90
13896;DHT22;7018;50.838;4.226;2022-11-20T18:31:53;8.50;99.90
13896;DHT22;7018;50.838;4.226;2022-11-20T18:34:20;8.50;99.90
13896;DHT22;7018;50.838;4.226;2022-11-20T18:36:48;8.50;99.90
13896;DHT22;7018;50.838;4.226;2022-11-20T18:39:16;8.40;99.90
13896;DHT22;7018;50.838;4.226;2022-11-20T18:41:43;8.40;99.90
13896;DHT22;7018;50.838;4.226;2022-11-20T18:44:29;8.30;99.90
13896;DHT22;7018;50.838;4.226;2022-11-20T18:47:23;8.30;99.90
13896;DHT22;7018;50.838;4.226;2022-11-20T18:49:52;8.30;99.90
13896;DHT22;7018;50.838;4.226;2022-11-20T18:52:22;8.30;99.90
13896;DHT22;7018;50.838;4.226;2022-11-20T18:54:51;8.30;99.90
13896;DHT22;7018;50.838;4.226;2022-11-20T18:57:20;8.20;99.90
13896;DHT22;7018;50.838;4.226;2022-11-20T18:59:48;8.20;99.90
13896;DHT22;7018;50.838;4.226;2022-11-20T19:02:17;8.10;99.90
13896;DHT22;7018;50.838;4.226;2022-11-20T19:04:45;8.20;99.90
13896;DHT22;7018;50.838;4.226;2022-11-20T19:07:13;8.20;99.90
13896;DHT22;7018;50.838;4.226;2022-11-20T19:09:42;8.20;99.90
13896;DHT22;7018;50.838;4.226;2022-11-20T19:12:11;8.10;99.90
13896;DHT22;7018;50.838;4.226;2022-11-20T19:14:38;8.10;99.90
13896;DHT22;7018;50.838;4.226;2022-11-20T19:17:06;8.10;99.90
13896;DHT22;7018;50.838;4.226;2022-11-20T19:19:34;8.00;99.90
13896;DHT22;7018;50.838;4.226;2022-11-20T19:22:01;8.00;99.90
13896;DHT22;7018;50.838;4.226;2022-11-20T19:24:28;8.00;99.90
13896;DHT22;7018;50.838;4.226;2022-11-20T19:26:58;7.90;99.90
13896;DHT22;7018;50.838;4.226;2022-11-20T19:29:26;7.90;99.90
13896;DHT22;7018;50.838;4.226;2022-11-20T19:31:54;7.90;99.90
13896;DHT22;7018;50.838;4.226;2022-11-20T19:34:21;7.90;99.90
13896;DHT22;7018;50.838;4.226;2022-11-20T19:36:48;8.00;99.90